sensor_id;sensor_type;location;lat;lon;timestamp;P1;durP1;ratioP1;P2;durP2;ratioP2
76437;SDS011;65273;43.198;0.118;2023-04-06T00:01:12;5.88;;;4.13;;
76437;SDS011;65273;43.198;0.118;2023-04-06T00:03:37;6.55;;;3.65;;
76437;SDS011;65273;43.198;0.118;2023-04-06T00:06:02;12.63;;;5.88;;
76437;SDS011;65273;43.198;0.118;2023-04-06T00:08:28;9.68;;;4.00;;
76437;SDS011;65273;43.198;0.118;2023-04-06T00:10:53;6.13;;;3.28;;
76437;SDS011;65273;43.198;0.118;2023-04-06T00:13:19;7.22;;;4.47;;
76437;SDS011;65273;43.198;0.118;2023-04-06T00:15:44;9.85;;;7.35;;
76437;SDS011;65273;43.198;0.118;2023-04-06T00:18:10;7.65;;;6.30;;
76437;SDS011;65273;43.198;0.118;2023-04-06T00:20:35;7.72;;;6.53;;
76437;SDS011;65273;43.198;0.118;2023-04-06T00:23:00;7.20;;;5.53;;
76437;SDS011;65273;43.198;0.118;2023-04-06T00:25:26;7.25;;;4.32;;
76437;SDS011;65273;43.198;0.118;2023-04-06T00:27:51;7.35;;;4.10;;
76437;SDS011;65273;43.198;0.118;2023-04-06T00:30:17;5.07;;;2.90;;
76437;SDS011;65273;43.198;0.118;2023-04-06T00:32:42;5.43;;;2.75;;
76437;SDS011;65273;43.198;0.118;2023-04-06T00:35:08;3.78;;;2.60;;
76437;SDS011;65273;43.198;0.118;2023-04-06T00:37:33;4.45;;;2.42;;
76437;SDS011;65273;43.198;0.118;2023-04-06T00:39:58;5.63;;;2.60;;
76437;SDS011;65273;43.198;0.118;2023-04-06T00:42:24;4.80;;;2.92;;
76437;SDS011;65273;43.198;0.118;2023-04-06T00:44:54;4.28;;;3.00;;
76437;SDS011;65273;43.198;0.118;2023-04-06T00:47:20;5.00;;;3.63;;
76437;SDS011;65273;43.198;0.118;2023-04-06T00:49:46;7.15;;;5.40;;
76437;SDS011;65273;43.198;0.118;2023-04-06T00:52:12;9.40;;;8.25;;
76437;SDS011;65273;43.198;0.118;2023-04-06T00:54:37;10.68;;;7.60;;
76437;SDS011;65273;43.198;0.118;2023-04-06T00:57:02;9.48;;;7.65;;
76437;SDS011;65273;43.198;0.118;2023-04-06T00:59:28;9.68;;;7.07;;
76437;SDS011;65273;43.198;0.118;2023-04-06T01:01:53;7.68;;;5.28;;
76437;SDS011;65273;43.198;0.118;2023-04-06T01:04:19;5.50;;;4.72;;
76437;SDS011;65273;43.198;0.118;2023-04-06T01:06:44;8.05;;;2.90;;
76437;SDS011;65273;43.198;0.118;2023-04-06T01:09:10;5.10;;;2.78;;
76437;SDS011;65273;43.198;0.118;2023-04-06T01:11:36;4.85;;;2.90;;
76437;SDS011;65273;43.198;0.118;2023-04-06T01:14:01;4.68;;;2.70;;
76437;SDS011;65273;43.198;0.118;2023-04-06T01:16:26;4.93;;;2.97;;
76437;SDS011;65273;43.198;0.118;2023-04-06T01:18:51;4.97;;;2.90;;
76437;SDS011;65273;43.198;0.118;2023-04-06T01:21:17;5.20;;;3.10;;
76437;SDS011;65273;43.198;0.118;2023-04-06T01:23:43;4.20;;;3.42;;
76437;SDS011;65273;43.198;0.118;2023-04-06T01:26:09;5.40;;;3.00;;
76437;SDS011;65273;43.198;0.118;2023-04-06T01:28:34;5.65;;;3.40;;
76437;SDS011;65273;43.198;0.118;2023-04-06T01:31:00;5.82;;;3.15;;
76437;SDS011;65273;43.198;0.118;2023-04-06T01:33:25;6.65;;;3.22;;
76437;SDS011;65273;43.198;0.118;2023-04-06T01:35:50;3.53;;;2.92;;
76437;SDS011;65273;43.198;0.118;2023-04-06T01:38:15;4.75;;;3.20;;
76437;SDS011;65273;43.198;0.118;2023-04-06T01:40:41;5.00;;;3.40;;
76437;SDS011;65273;43.198;0.118;2023-04-06T01:43:06;10.15;;;3.90;;
76437;SDS011;65273;43.198;0.118;2023-04-06T01:45:31;7.93;;;4.10;;
76437;SDS011;65273;43.198;0.118;2023-04-06T01:47:57;7.15;;;3.90;;
76437;SDS011;65273;43.198;0.118;2023-04-06T01:50:22;6.68;;;3.85;;
76437;SDS011;65273;43.198;0.118;2023-04-06T01:52:48;8.60;;;4.03;;
76437;SDS011;65273;43.198;0.118;2023-04-06T01:55:13;10.77;;;4.82;;
76437;SDS011;65273;43.198;0.118;2023-04-06T01:57:38;9.82;;;3.80;;
76437;SDS011;65273;43.198;0.118;2023-04-06T02:00:04;4.00;;;2.88;;
76437;SDS011;65273;43.198;0.118;2023-04-06T02:02:29;6.07;;;3.55;;
76437;SDS011;65273;43.198;0.118;2023-04-06T02:04:54;5.28;;;3.45;;
76437;SDS011;65273;43.198;0.118;2023-04-06T02:07:20;7.78;;;4.15;;
76437;SDS011;65273;43.198;0.118;2023-04-06T02:09:46;7.43;;;3.80;;
76437;SDS011;65273;43.198;0.118;2023-04-06T02:12:11;6.78;;;3.47;;
76437;SDS011;65273;43.198;0.118;2023-04-06T02:14:36;6.20;;;3.25;;
76437;SDS011;65273;43.198;0.118;2023-04-06T02:17:02;6.60;;;3.40;;
76437;SDS011;65273;43.198;0.118;2023-04-06T02:19:27;4.60;;;2.83;;
76437;SDS011;65273;43.198;0.118;2023-04-06T02:21:52;4.82;;;3.10;;
76437;SDS011;65273;43.198;0.118;2023-04-06T02:24:18;6.53;;;3.10;;
76437;SDS011;65273;43.198;0.118;2023-04-06T02:26:43;5.20;;;2.70;;
76437;SDS011;65273;43.198;0.118;2023-04-06T02:29:08;5.00;;;3.05;;
76437;SDS011;65273;43.198;0.118;2023-04-06T02:31:34;5.47;;;2.75;;
76437;SDS011;65273;43.198;0.118;2023-04-06T02:34:00;4.78;;;2.83;;
76437;SDS011;65273;43.198;0.118;2023-04-06T02:36:25;7.07;;;3.70;;
76437;SDS011;65273;43.198;0.118;2023-04-06T02:38:51;4.97;;;2.80;;
76437;SDS011;65273;43.198;0.118;2023-04-06T02:41:16;3.38;;;2.75;;
76437;SDS011;65273;43.198;0.118;2023-04-06T02:43:42;5.60;;;2.33;;
76437;SDS011;65273;43.198;0.118;2023-04-06T02:46:07;2.55;;;2.30;;
76437;SDS011;65273;43.198;0.118;2023-04-06T02:48:32;4.30;;;2.58;;
76437;SDS011;65273;43.198;0.118;2023-04-06T02:51:01;3.67;;;2.30;;
76437;SDS011;65273;43.198;0.118;2023-04-06T02:53:26;5.15;;;3.00;;
76437;SDS011;65273;43.198;0.118;2023-04-06T02:55:52;11.20;;;4.35;;
76437;SDS011;65273;43.198;0.118;2023-04-06T02:58:17;6.35;;;3.17;;
76437;SDS011;65273;43.198;0.118;2023-04-06T03:00:43;6.82;;;2.72;;
76437;SDS011;65273;43.198;0.118;2023-04-06T03:03:08;4.07;;;2.63;;
76437;SDS011;65273;43.198;0.118;2023-04-06T03:05:33;3.75;;;2.72;;
76437;SDS011;65273;43.198;0.118;2023-04-06T03:07:59;6.50;;;2.55;;
76437;SDS011;65273;43.198;0.118;2023-04-06T03:10:24;3.42;;;2.40;;
76437;SDS011;65273;43.198;0.118;2023-04-06T03:12:50;5.40;;;3.30;;
76437;SDS011;65273;43.198;0.118;2023-04-06T03:15:15;6.68;;;3.50;;
76437;SDS011;65273;43.198;0.118;2023-04-06T03:17:40;9.77;;;4.65;;
76437;SDS011;65273;43.198;0.118;2023-04-06T03:20:06;13.68;;;4.85;;
76437;SDS011;65273;43.198;0.118;2023-04-06T03:22:31;9.10;;;4.25;;
76437;SDS011;65273;43.198;0.118;2023-04-06T03:24:56;6.07;;;3.90;;
76437;SDS011;65273;43.198;0.118;2023-04-06T03:27:22;5.72;;;3.35;;
76437;SDS011;65273;43.198;0.118;2023-04-06T03:29:47;7.95;;;2.85;;
76437;SDS011;65273;43.198;0.118;2023-04-06T03:32:12;6.03;;;2.72;;
76437;SDS011;65273;43.198;0.118;2023-04-06T03:34:38;4.05;;;2.63;;
76437;SDS011;65273;43.198;0.118;2023-04-06T03:37:04;9.00;;;4.13;;
76437;SDS011;65273;43.198;0.118;2023-04-06T03:39:29;5.82;;;3.30;;
76437;SDS011;65273;43.198;0.118;2023-04-06T03:41:55;7.75;;;3.83;;
76437;SDS011;65273;43.198;0.118;2023-04-06T03:44:20;8.10;;;3.85;;
76437;SDS011;65273;43.198;0.118;2023-04-06T03:46:45;10.30;;;4.55;;
76437;SDS011;65273;43.198;0.118;2023-04-06T03:49:11;10.85;;;3.85;;
76437;SDS011;65273;43.198;0.118;2023-04-06T03:51:36;6.22;;;4.05;;
76437;SDS011;65273;43.198;0.118;2023-04-06T03:54:01;5.60;;;3.22;;
76437;SDS011;65273;43.198;0.118;2023-04-06T03:56:26;7.60;;;3.33;;
76437;SDS011;65273;43.198;0.118;2023-04-06T03:58:52;5.38;;;2.95;;
76437;SDS011;65273;43.198;0.118;2023-04-06T04:01:17;7.68;;;4.38;;
76437;SDS011;65273;43.198;0.118;2023-04-06T04:03:43;3.15;;;2.55;;
76437;SDS011;65273;43.198;0.118;2023-04-06T04:06:08;4.88;;;2.78;;
76437;SDS011;65273;43.198;0.118;2023-04-06T04:08:34;3.05;;;2.33;;
76437;SDS011;65273;43.198;0.118;2023-04-06T04:11:00;3.10;;;2.35;;
76437;SDS011;65273;43.198;0.118;2023-04-06T04:13:25;3.72;;;2.47;;
76437;SDS011;65273;43.198;0.118;2023-04-06T04:15:51;4.38;;;2.88;;
76437;SDS011;65273;43.198;0.118;2023-04-06T04:18:16;5.60;;;2.70;;
76437;SDS011;65273;43.198;0.118;2023-04-06T04:20:41;4.32;;;2.90;;
76437;SDS011;65273;43.198;0.118;2023-04-06T04:23:06;4.10;;;2.78;;
76437;SDS011;65273;43.198;0.118;2023-04-06T04:25:32;5.75;;;2.80;;
76437;SDS011;65273;43.198;0.118;2023-04-06T04:27:57;3.78;;;2.85;;
76437;SDS011;65273;43.198;0.118;2023-04-06T04:30:22;4.68;;;2.67;;
76437;SDS011;65273;43.198;0.118;2023-04-06T04:32:48;3.97;;;2.40;;
76437;SDS011;65273;43.198;0.118;2023-04-06T04:35:13;3.60;;;2.80;;
76437;SDS011;65273;43.198;0.118;2023-04-06T04:37:40;6.80;;;2.80;;
76437;SDS011;65273;43.198;0.118;2023-04-06T04:40:05;3.35;;;2.42;;
76437;SDS011;65273;43.198;0.118;2023-04-06T04:42:31;3.65;;;2.33;;
76437;SDS011;65273;43.198;0.118;2023-04-06T04:44:56;5.45;;;2.55;;
76437;SDS011;65273;43.198;0.118;2023-04-06T04:47:22;16.23;;;11.38;;
76437;SDS011;65273;43.198;0.118;2023-04-06T04:49:47;13.75;;;7.03;;
76437;SDS011;65273;43.198;0.118;2023-04-06T04:52:12;9.43;;;7.68;;
76437;SDS011;65273;43.198;0.118;2023-04-06T04:54:37;13.93;;;7.68;;
76437;SDS011;65273;43.198;0.118;2023-04-06T04:57:05;11.52;;;7.68;;
76437;SDS011;65273;43.198;0.118;2023-04-06T04:59:30;9.68;;;6.78;;
76437;SDS011;65273;43.198;0.118;2023-04-06T05:01:55;10.20;;;6.88;;
76437;SDS011;65273;43.198;0.118;2023-04-06T05:04:21;13.80;;;5.63;;
76437;SDS011;65273;43.198;0.118;2023-04-06T05:06:47;9.00;;;4.20;;
76437;SDS011;65273;43.198;0.118;2023-04-06T05:09:12;6.40;;;4.53;;
76437;SDS011;65273;43.198;0.118;2023-04-06T05:11:37;6.15;;;4.35;;
76437;SDS011;65273;43.198;0.118;2023-04-06T05:14:03;6.07;;;4.18;;
76437;SDS011;65273;43.198;0.118;2023-04-06T05:16:28;10.15;;;7.05;;
76437;SDS011;65273;43.198;0.118;2023-04-06T05:18:53;7.22;;;5.05;;
76437;SDS011;65273;43.198;0.118;2023-04-06T05:21:21;4.85;;;4.32;;
76437;SDS011;65273;43.198;0.118;2023-04-06T05:23:47;6.60;;;3.40;;
76437;SDS011;65273;43.198;0.118;2023-04-06T05:26:12;5.82;;;3.60;;
76437;SDS011;65273;43.198;0.118;2023-04-06T05:28:37;5.93;;;3.40;;
76437;SDS011;65273;43.198;0.118;2023-04-06T05:31:03;5.78;;;3.33;;
76437;SDS011;65273;43.198;0.118;2023-04-06T05:33:28;7.78;;;3.55;;
76437;SDS011;65273;43.198;0.118;2023-04-06T05:35:54;6.18;;;3.13;;
76437;SDS011;65273;43.198;0.118;2023-04-06T05:38:19;4.05;;;2.72;;
76437;SDS011;65273;43.198;0.118;2023-04-06T05:40:45;4.32;;;3.13;;
76437;SDS011;65273;43.198;0.118;2023-04-06T05:43:10;4.75;;;3.10;;
76437;SDS011;65273;43.198;0.118;2023-04-06T05:45:35;4.88;;;3.63;;
76437;SDS011;65273;43.198;0.118;2023-04-06T05:48:01;4.85;;;3.28;;
76437;SDS011;65273;43.198;0.118;2023-04-06T05:50:27;3.60;;;3.10;;
76437;SDS011;65273;43.198;0.118;2023-04-06T05:52:52;4.38;;;3.20;;
76437;SDS011;65273;43.198;0.118;2023-04-06T05:55:18;3.58;;;3.03;;
76437;SDS011;65273;43.198;0.118;2023-04-06T05:57:43;6.45;;;3.70;;
76437;SDS011;65273;43.198;0.118;2023-04-06T06:00:08;5.05;;;3.75;;
76437;SDS011;65273;43.198;0.118;2023-04-06T06:02:34;11.10;;;4.63;;
76437;SDS011;65273;43.198;0.118;2023-04-06T06:05:00;7.45;;;3.97;;
76437;SDS011;65273;43.198;0.118;2023-04-06T06:07:25;6.25;;;3.25;;
76437;SDS011;65273;43.198;0.118;2023-04-06T06:09:50;10.55;;;4.38;;
76437;SDS011;65273;43.198;0.118;2023-04-06T06:12:16;9.93;;;3.80;;
76437;SDS011;65273;43.198;0.118;2023-04-06T06:14:41;5.55;;;3.60;;
76437;SDS011;65273;43.198;0.118;2023-04-06T06:17:07;3.90;;;3.50;;
76437;SDS011;65273;43.198;0.118;2023-04-06T06:19:32;3.80;;;3.40;;
76437;SDS011;65273;43.198;0.118;2023-04-06T06:21:57;5.75;;;3.22;;
76437;SDS011;65273;43.198;0.118;2023-04-06T06:24:23;5.78;;;3.25;;
76437;SDS011;65273;43.198;0.118;2023-04-06T06:26:49;8.18;;;3.28;;
76437;SDS011;65273;43.198;0.118;2023-04-06T06:29:14;4.18;;;3.20;;
76437;SDS011;65273;43.198;0.118;2023-04-06T06:31:40;5.85;;;3.38;;
76437;SDS011;65273;43.198;0.118;2023-04-06T06:34:05;7.57;;;3.63;;
76437;SDS011;65273;43.198;0.118;2023-04-06T06:36:31;6.97;;;3.30;;
76437;SDS011;65273;43.198;0.118;2023-04-06T06:38:57;6.20;;;3.78;;
76437;SDS011;65273;43.198;0.118;2023-04-06T06:41:23;6.95;;;3.38;;
76437;SDS011;65273;43.198;0.118;2023-04-06T06:43:49;9.73;;;4.72;;
76437;SDS011;65273;43.198;0.118;2023-04-06T06:46:14;18.33;;;9.68;;
76437;SDS011;65273;43.198;0.118;2023-04-06T06:48:40;12.10;;;6.90;;
76437;SDS011;65273;43.198;0.118;2023-04-06T06:51:05;11.32;;;6.28;;
76437;SDS011;65273;43.198;0.118;2023-04-06T06:53:31;18.02;;;7.90;;
76437;SDS011;65273;43.198;0.118;2023-04-06T06:55:56;14.38;;;7.05;;
76437;SDS011;65273;43.198;0.118;2023-04-06T06:58:21;9.95;;;6.28;;
76437;SDS011;65273;43.198;0.118;2023-04-06T07:00:47;9.63;;;4.50;;
76437;SDS011;65273;43.198;0.118;2023-04-06T07:03:12;6.40;;;4.80;;
76437;SDS011;65273;43.198;0.118;2023-04-06T07:05:38;5.95;;;4.57;;
76437;SDS011;65273;43.198;0.118;2023-04-06T07:08:03;5.78;;;5.00;;
76437;SDS011;65273;43.198;0.118;2023-04-06T07:10:28;8.10;;;4.82;;
76437;SDS011;65273;43.198;0.118;2023-04-06T07:12:54;9.15;;;4.43;;
76437;SDS011;65273;43.198;0.118;2023-04-06T07:15:19;11.90;;;4.50;;
76437;SDS011;65273;43.198;0.118;2023-04-06T07:17:45;12.43;;;4.35;;
76437;SDS011;65273;43.198;0.118;2023-04-06T07:20:11;5.75;;;3.60;;
76437;SDS011;65273;43.198;0.118;2023-04-06T07:22:37;4.47;;;3.97;;
76437;SDS011;65273;43.198;0.118;2023-04-06T07:25:02;4.45;;;3.53;;
76437;SDS011;65273;43.198;0.118;2023-04-06T07:27:28;4.70;;;4.10;;
76437;SDS011;65273;43.198;0.118;2023-04-06T07:29:53;7.85;;;3.47;;
76437;SDS011;65273;43.198;0.118;2023-04-06T07:32:18;3.92;;;3.15;;
76437;SDS011;65273;43.198;0.118;2023-04-06T07:34:44;7.18;;;2.70;;
76437;SDS011;65273;43.198;0.118;2023-04-06T07:37:10;4.43;;;2.25;;
76437;SDS011;65273;43.198;0.118;2023-04-06T07:39:35;3.38;;;2.60;;
76437;SDS011;65273;43.198;0.118;2023-04-06T07:42:01;4.90;;;2.80;;
76437;SDS011;65273;43.198;0.118;2023-04-06T07:44:26;4.10;;;2.95;;
76437;SDS011;65273;43.198;0.118;2023-04-06T07:46:51;3.00;;;2.70;;
76437;SDS011;65273;43.198;0.118;2023-04-06T07:49:17;6.40;;;2.63;;
76437;SDS011;65273;43.198;0.118;2023-04-06T07:51:42;5.63;;;2.63;;
76437;SDS011;65273;43.198;0.118;2023-04-06T07:54:07;2.22;;;2.00;;
76437;SDS011;65273;43.198;0.118;2023-04-06T07:56:33;4.55;;;1.95;;
76437;SDS011;65273;43.198;0.118;2023-04-06T07:58:58;1.98;;;1.77;;
76437;SDS011;65273;43.198;0.118;2023-04-06T08:01:24;4.13;;;2.05;;
76437;SDS011;65273;43.198;0.118;2023-04-06T08:03:50;4.25;;;1.95;;
76437;SDS011;65273;43.198;0.118;2023-04-06T08:06:15;3.55;;;1.85;;
76437;SDS011;65273;43.198;0.118;2023-04-06T08:08:41;4.82;;;1.92;;
76437;SDS011;65273;43.198;0.118;2023-04-06T08:11:06;12.35;;;1.90;;
76437;SDS011;65273;43.198;0.118;2023-04-06T08:13:31;5.03;;;1.92;;
76437;SDS011;65273;43.198;0.118;2023-04-06T08:15:57;4.15;;;1.75;;
76437;SDS011;65273;43.198;0.118;2023-04-06T08:18:22;3.55;;;1.92;;
76437;SDS011;65273;43.198;0.118;2023-04-06T08:20:47;6.00;;;1.52;;
76437;SDS011;65273;43.198;0.118;2023-04-06T08:23:14;2.20;;;1.40;;
76437;SDS011;65273;43.198;0.118;2023-04-06T08:25:41;3.90;;;1.45;;
76437;SDS011;65273;43.198;0.118;2023-04-06T08:28:07;2.30;;;1.60;;
76437;SDS011;65273;43.198;0.118;2023-04-06T08:30:35;3.45;;;1.58;;
76437;SDS011;65273;43.198;0.118;2023-04-06T08:33:02;3.45;;;1.40;;
76437;SDS011;65273;43.198;0.118;2023-04-06T08:35:27;3.13;;;1.27;;
76437;SDS011;65273;43.198;0.118;2023-04-06T08:37:53;5.72;;;1.60;;
76437;SDS011;65273;43.198;0.118;2023-04-06T08:40:18;3.83;;;1.63;;
76437;SDS011;65273;43.198;0.118;2023-04-06T08:42:54;4.57;;;1.70;;
76437;SDS011;65273;43.198;0.118;2023-04-06T08:45:19;2.80;;;1.60;;
76437;SDS011;65273;43.198;0.118;2023-04-06T08:47:46;5.78;;;1.70;;
76437;SDS011;65273;43.198;0.118;2023-04-06T08:50:13;5.95;;;1.50;;
76437;SDS011;65273;43.198;0.118;2023-04-06T08:52:39;8.65;;;2.10;;
76437;SDS011;65273;43.198;0.118;2023-04-06T08:55:05;4.35;;;1.73;;
76437;SDS011;65273;43.198;0.118;2023-04-06T08:57:30;2.75;;;1.75;;
76437;SDS011;65273;43.198;0.118;2023-04-06T08:59:56;4.15;;;1.73;;
76437;SDS011;65273;43.198;0.118;2023-04-06T09:02:22;3.45;;;1.95;;
76437;SDS011;65273;43.198;0.118;2023-04-06T09:04:49;8.90;;;2.30;;
76437;SDS011;65273;43.198;0.118;2023-04-06T09:07:17;3.25;;;1.88;;
76437;SDS011;65273;43.198;0.118;2023-04-06T09:09:42;5.10;;;1.98;;
76437;SDS011;65273;43.198;0.118;2023-04-06T09:12:22;5.65;;;2.20;;
76437;SDS011;65273;43.198;0.118;2023-04-06T09:14:47;4.63;;;2.28;;
76437;SDS011;65273;43.198;0.118;2023-04-06T09:17:19;5.13;;;2.05;;
76437;SDS011;65273;43.198;0.118;2023-04-06T09:19:45;4.97;;;2.38;;
76437;SDS011;65273;43.198;0.118;2023-04-06T09:22:11;3.28;;;2.08;;
76437;SDS011;65273;43.198;0.118;2023-04-06T09:24:45;6.85;;;2.30;;
76437;SDS011;65273;43.198;0.118;2023-04-06T09:27:11;7.55;;;2.22;;
76437;SDS011;65273;43.198;0.118;2023-04-06T09:29:37;4.80;;;2.67;;
76437;SDS011;65273;43.198;0.118;2023-04-06T09:32:03;6.38;;;2.85;;
76437;SDS011;65273;43.198;0.118;2023-04-06T09:34:28;7.78;;;2.50;;
76437;SDS011;65273;43.198;0.118;2023-04-06T09:36:54;6.03;;;3.30;;
76437;SDS011;65273;43.198;0.118;2023-04-06T09:39:22;6.82;;;2.40;;
76437;SDS011;65273;43.198;0.118;2023-04-06T09:41:51;4.97;;;2.22;;
76437;SDS011;65273;43.198;0.118;2023-04-06T09:44:16;4.47;;;2.10;;
76437;SDS011;65273;43.198;0.118;2023-04-06T09:46:42;5.68;;;2.08;;
76437;SDS011;65273;43.198;0.118;2023-04-06T09:49:08;40.38;;;4.25;;
76437;SDS011;65273;43.198;0.118;2023-04-06T09:51:38;5.13;;;2.00;;
76437;SDS011;65273;43.198;0.118;2023-04-06T09:54:03;3.95;;;2.47;;
76437;SDS011;65273;43.198;0.118;2023-04-06T09:56:51;6.22;;;2.35;;
76437;SDS011;65273;43.198;0.118;2023-04-06T09:59:20;8.90;;;2.22;;
76437;SDS011;65273;43.198;0.118;2023-04-06T10:01:46;17.67;;;2.60;;
76437;SDS011;65273;43.198;0.118;2023-04-06T10:04:21;5.15;;;1.92;;
76437;SDS011;65273;43.198;0.118;2023-04-06T10:06:49;3.25;;;1.45;;
76437;SDS011;65273;43.198;0.118;2023-04-06T10:09:17;2.70;;;1.42;;
76437;SDS011;65273;43.198;0.118;2023-04-06T10:11:43;3.85;;;1.90;;
76437;SDS011;65273;43.198;0.118;2023-04-06T10:14:09;6.35;;;4.05;;
76437;SDS011;65273;43.198;0.118;2023-04-06T10:16:36;2.88;;;2.00;;
76437;SDS011;65273;43.198;0.118;2023-04-06T10:19:04;4.30;;;1.60;;
76437;SDS011;65273;43.198;0.118;2023-04-06T10:21:34;2.28;;;1.30;;
76437;SDS011;65273;43.198;0.118;2023-04-06T10:24:01;4.07;;;1.48;;
76437;SDS011;65273;43.198;0.118;2023-04-06T10:26:27;3.90;;;1.42;;
76437;SDS011;65273;43.198;0.118;2023-04-06T10:28:52;3.10;;;1.27;;
76437;SDS011;65273;43.198;0.118;2023-04-06T10:31:26;3.17;;;1.48;;
76437;SDS011;65273;43.198;0.118;2023-04-06T10:33:56;2.13;;;1.27;;
76437;SDS011;65273;43.198;0.118;2023-04-06T10:36:26;2.65;;;1.70;;
76437;SDS011;65273;43.198;0.118;2023-04-06T10:38:56;3.08;;;1.48;;
76437;SDS011;65273;43.198;0.118;2023-04-06T10:41:23;3.72;;;1.50;;
76437;SDS011;65273;43.198;0.118;2023-04-06T10:43:56;4.03;;;1.30;;
76437;SDS011;65273;43.198;0.118;2023-04-06T10:46:26;1.20;;;1.10;;
76437;SDS011;65273;43.198;0.118;2023-04-06T10:48:52;4.22;;;1.10;;
76437;SDS011;65273;43.198;0.118;2023-04-06T10:51:18;3.10;;;1.30;;
76437;SDS011;65273;43.198;0.118;2023-04-06T10:53:45;2.80;;;1.40;;
76437;SDS011;65273;43.198;0.118;2023-04-06T10:56:14;3.40;;;1.25;;
76437;SDS011;65273;43.198;0.118;2023-04-06T10:58:47;4.20;;;1.30;;
76437;SDS011;65273;43.198;0.118;2023-04-06T11:01:14;2.47;;;1.55;;
76437;SDS011;65273;43.198;0.118;2023-04-06T11:03:45;3.17;;;1.35;;
76437;SDS011;65273;43.198;0.118;2023-04-06T11:06:17;3.20;;;1.30;;
76437;SDS011;65273;43.198;0.118;2023-04-06T11:08:43;2.15;;;1.13;;
76437;SDS011;65273;43.198;0.118;2023-04-06T11:11:10;2.83;;;1.15;;
76437;SDS011;65273;43.198;0.118;2023-04-06T11:13:50;1.35;;;1.25;;
76437;SDS011;65273;43.198;0.118;2023-04-06T11:16:24;5.25;;;1.40;;
76437;SDS011;65273;43.198;0.118;2023-04-06T11:18:50;5.28;;;1.25;;
76437;SDS011;65273;43.198;0.118;2023-04-06T11:21:16;1.98;;;1.27;;
76437;SDS011;65273;43.198;0.118;2023-04-06T11:23:42;1.25;;;1.15;;
76437;SDS011;65273;43.198;0.118;2023-04-06T11:26:14;3.25;;;1.50;;
76437;SDS011;65273;43.198;0.118;2023-04-06T11:31:09;1.73;;;1.30;;
76437;SDS011;65273;43.198;0.118;2023-04-06T11:33:36;1.73;;;1.10;;
76437;SDS011;65273;43.198;0.118;2023-04-06T11:36:03;4.03;;;1.30;;
76437;SDS011;65273;43.198;0.118;2023-04-06T11:38:29;2.25;;;1.10;;
76437;SDS011;65273;43.198;0.118;2023-04-06T11:40:55;1.35;;;1.00;;
76437;SDS011;65273;43.198;0.118;2023-04-06T11:43:30;1.20;;;1.00;;
76437;SDS011;65273;43.198;0.118;2023-04-06T11:45:59;3.78;;;1.20;;
76437;SDS011;65273;43.198;0.118;2023-04-06T11:48:28;1.42;;;0.90;;
76437;SDS011;65273;43.198;0.118;2023-04-06T11:50:57;1.48;;;1.13;;
76437;SDS011;65273;43.198;0.118;2023-04-06T11:53:23;1.67;;;1.13;;
76437;SDS011;65273;43.198;0.118;2023-04-06T11:55:49;2.95;;;1.17;;
76437;SDS011;65273;43.198;0.118;2023-04-06T11:58:15;3.00;;;1.00;;
76437;SDS011;65273;43.198;0.118;2023-04-06T12:00:40;1.13;;;0.90;;
76437;SDS011;65273;43.198;0.118;2023-04-06T12:03:10;3.50;;;1.20;;
76437;SDS011;65273;43.198;0.118;2023-04-06T12:05:38;6.43;;;1.13;;
76437;SDS011;65273;43.198;0.118;2023-04-06T12:08:04;1.83;;;1.00;;
76437;SDS011;65273;43.198;0.118;2023-04-06T12:10:30;5.18;;;1.48;;
76437;SDS011;65273;43.198;0.118;2023-04-06T12:12:55;3.72;;;1.13;;
76437;SDS011;65273;43.198;0.118;2023-04-06T12:15:21;3.42;;;1.10;;
76437;SDS011;65273;43.198;0.118;2023-04-06T12:17:47;3.10;;;1.30;;
76437;SDS011;65273;43.198;0.118;2023-04-06T12:20:12;1.38;;;1.00;;
76437;SDS011;65273;43.198;0.118;2023-04-06T12:22:38;1.83;;;1.08;;
76437;SDS011;65273;43.198;0.118;2023-04-06T12:25:04;2.05;;;1.20;;
76437;SDS011;65273;43.198;0.118;2023-04-06T12:27:31;1.90;;;1.10;;
76437;SDS011;65273;43.198;0.118;2023-04-06T12:29:57;1.92;;;1.08;;
76437;SDS011;65273;43.198;0.118;2023-04-06T12:32:22;2.08;;;1.10;;
76437;SDS011;65273;43.198;0.118;2023-04-06T12:34:48;2.25;;;1.20;;
76437;SDS011;65273;43.198;0.118;2023-04-06T12:37:13;2.08;;;1.20;;
76437;SDS011;65273;43.198;0.118;2023-04-06T12:39:40;3.47;;;1.58;;
76437;SDS011;65273;43.198;0.118;2023-04-06T12:42:05;3.08;;;1.20;;
76437;SDS011;65273;43.198;0.118;2023-04-06T12:44:31;4.60;;;1.65;;
76437;SDS011;65273;43.198;0.118;2023-04-06T12:46:56;3.60;;;1.40;;
76437;SDS011;65273;43.198;0.118;2023-04-06T12:49:21;6.35;;;1.65;;
76437;SDS011;65273;43.198;0.118;2023-04-06T12:51:47;3.58;;;1.67;;
76437;SDS011;65273;43.198;0.118;2023-04-06T12:54:12;2.35;;;1.20;;
76437;SDS011;65273;43.198;0.118;2023-04-06T12:56:38;3.15;;;1.30;;
76437;SDS011;65273;43.198;0.118;2023-04-06T12:59:04;3.00;;;1.25;;
76437;SDS011;65273;43.198;0.118;2023-04-06T13:01:30;2.88;;;1.48;;
76437;SDS011;65273;43.198;0.118;2023-04-06T13:03:56;2.95;;;1.33;;
76437;SDS011;65273;43.198;0.118;2023-04-06T13:06:22;2.53;;;1.30;;
76437;SDS011;65273;43.198;0.118;2023-04-06T13:08:52;2.22;;;1.20;;
76437;SDS011;65273;43.198;0.118;2023-04-06T13:11:17;1.50;;;1.25;;
76437;SDS011;65273;43.198;0.118;2023-04-06T13:13:44;2.45;;;1.40;;
76437;SDS011;65273;43.198;0.118;2023-04-06T13:16:09;4.25;;;1.40;;
76437;SDS011;65273;43.198;0.118;2023-04-06T13:18:35;2.15;;;1.42;;
76437;SDS011;65273;43.198;0.118;2023-04-06T13:21:03;2.25;;;1.13;;
76437;SDS011;65273;43.198;0.118;2023-04-06T13:23:29;4.18;;;1.65;;
76437;SDS011;65273;43.198;0.118;2023-04-06T13:26:00;2.60;;;1.27;;
76437;SDS011;65273;43.198;0.118;2023-04-06T13:28:26;6.03;;;1.40;;
76437;SDS011;65273;43.198;0.118;2023-04-06T13:30:52;1.83;;;1.20;;
76437;SDS011;65273;43.198;0.118;2023-04-06T13:33:17;1.70;;;1.13;;
76437;SDS011;65273;43.198;0.118;2023-04-06T13:35:46;1.63;;;1.30;;
76437;SDS011;65273;43.198;0.118;2023-04-06T13:38:12;1.42;;;1.10;;
76437;SDS011;65273;43.198;0.118;2023-04-06T13:40:38;2.30;;;1.30;;
76437;SDS011;65273;43.198;0.118;2023-04-06T13:43:05;2.35;;;1.00;;
76437;SDS011;65273;43.198;0.118;2023-04-06T13:45:30;2.13;;;1.45;;
76437;SDS011;65273;43.198;0.118;2023-04-06T13:47:56;3.58;;;1.30;;
76437;SDS011;65273;43.198;0.118;2023-04-06T13:50:21;7.35;;;1.52;;
76437;SDS011;65273;43.198;0.118;2023-04-06T13:52:47;1.95;;;1.25;;
76437;SDS011;65273;43.198;0.118;2023-04-06T13:55:14;3.20;;;1.45;;
76437;SDS011;65273;43.198;0.118;2023-04-06T13:57:40;5.20;;;1.30;;
76437;SDS011;65273;43.198;0.118;2023-04-06T14:00:07;2.65;;;1.30;;
76437;SDS011;65273;43.198;0.118;2023-04-06T14:02:34;4.63;;;1.50;;
76437;SDS011;65273;43.198;0.118;2023-04-06T14:05:00;3.40;;;1.92;;
76437;SDS011;65273;43.198;0.118;2023-04-06T14:07:25;4.35;;;1.70;;
76437;SDS011;65273;43.198;0.118;2023-04-06T14:09:51;4.60;;;1.40;;
76437;SDS011;65273;43.198;0.118;2023-04-06T14:12:16;3.83;;;1.40;;
76437;SDS011;65273;43.198;0.118;2023-04-06T14:14:42;7.32;;;1.30;;
76437;SDS011;65273;43.198;0.118;2023-04-06T14:17:07;4.57;;;1.60;;
76437;SDS011;65273;43.198;0.118;2023-04-06T14:19:33;2.17;;;1.52;;
76437;SDS011;65273;43.198;0.118;2023-04-06T14:21:59;2.85;;;1.30;;
76437;SDS011;65273;43.198;0.118;2023-04-06T14:24:25;3.33;;;1.38;;
76437;SDS011;65273;43.198;0.118;2023-04-06T14:26:51;3.53;;;1.33;;
76437;SDS011;65273;43.198;0.118;2023-04-06T14:29:16;3.80;;;1.45;;
76437;SDS011;65273;43.198;0.118;2023-04-06T14:31:42;3.85;;;1.30;;
76437;SDS011;65273;43.198;0.118;2023-04-06T14:34:08;1.95;;;1.33;;
76437;SDS011;65273;43.198;0.118;2023-04-06T14:36:33;2.35;;;1.23;;
76437;SDS011;65273;43.198;0.118;2023-04-06T14:39:05;1.65;;;1.20;;
76437;SDS011;65273;43.198;0.118;2023-04-06T14:41:31;1.75;;;1.20;;